sensor_id;sensor_type;location;lat;lon;timestamp;temperature;humidity
59015;DHT22;44799;53.382;14.666;2022-08-21T00:01:57;20.30;99.90
59015;DHT22;44799;53.382;14.666;2022-08-21T00:04:23;20.30;99.90
59015;DHT22;44799;53.382;14.666;2022-08-21T00:06:52;20.30;99.90
59015;DHT22;44799;53.382;14.666;2022-08-21T00:09:19;20.30;99.90
59015;DHT22;44799;53.382;14.666;2022-08-21T00:11:46;20.30;99.90
59015;DHT22;44799;53.382;14.666;2022-08-21T00:14:13;20.30;99.80
59015;DHT22;44799;53.382;14.666;2022-08-21T00:16:40;20.30;99.90
59015;DHT22;44799;53.382;14.666;2022-08-21T00:19:07;20.20;99.80
59015;DHT22;44799;53.382;14.666;2022-08-21T00:21:34;20.20;99.90
59015;DHT22;44799;53.382;14.666;2022-08-21T00:24:00;20.90;99.90
59015;DHT22;44799;53.382;14.666;2022-08-21T00:26:26;20.10;99.90
59015;DHT22;44799;53.382;14.666;2022-08-21T00:28:52;20.10;99.90
59015;DHT22;44799;53.382;14.666;2022-08-21T00:31:18;20.20;99.90
59015;DHT22;44799;53.382;14.666;2022-08-21T00:33:45;20.10;99.90
59015;DHT22;44799;53.382;14.666;2022-08-21T00:36:12;20.10;99.90
59015;DHT22;44799;53.382;14.666;2022-08-21T00:38:38;20.00;99.90
59015;DHT22;44799;53.382;14.666;2022-08-21T00:41:06;19.90;99.90
59015;DHT22;44799;53.382;14.666;2022-08-21T00:43:35;19.90;99.90
59015;DHT22;44799;53.382;14.666;2022-08-21T00:46:02;19.80;99.90
59015;DHT22;44799;53.382;14.666;2022-08-21T00:48:28;19.90;99.90
59015;DHT22;44799;53.382;14.666;2022-08-21T00:51:02;19.80;99.90
59015;DHT22;44799;53.382;14.666;2022-08-21T00:53:29;18.60;99.90
59015;DHT22;44799;53.382;14.666;2022-08-21T00:55:57;19.80;99.90
59015;DHT22;44799;53.382;14.666;2022-08-21T00:58:24;19.70;99.90
59015;DHT22;44799;53.382;14.666;2022-08-21T01:00:52;19.70;99.90
59015;DHT22;44799;53.382;14.666;2022-08-21T01:03:22;19.70;99.90
59015;DHT22;44799;53.382;14.666;2022-08-21T01:05:50;19.00;99.90
59015;DHT22;44799;53.382;14.666;2022-08-21T01:08:17;19.60;99.90
59015;DHT22;44799;53.382;14.666;2022-08-21T01:10:44;19.60;99.90
59015;DHT22;44799;53.382;14.666;2022-08-21T01:13:12;19.60;99.90
59015;DHT22;44799;53.382;14.666;2022-08-21T01:15:43;19.50;99.90
59015;DHT22;44799;53.382;14.666;2022-08-21T01:18:11;19.60;99.90
59015;DHT22;44799;53.382;14.666;2022-08-21T01:20:41;19.60;99.90
59015;DHT22;44799;53.382;14.666;2022-08-21T01:23:07;19.60;99.90
59015;DHT22;44799;53.382;14.666;2022-08-21T01:25:34;19.60;99.90
59015;DHT22;44799;53.382;14.666;2022-08-21T01:28:04;19.70;99.90
59015;DHT22;44799;53.382;14.666;2022-08-21T01:30:34;19.10;99.90
59015;DHT22;44799;53.382;14.666;2022-08-21T01:33:00;19.50;99.90
59015;DHT22;44799;53.382;14.666;2022-08-21T01:35:26;19.50;99.90
59015;DHT22;44799;53.382;14.666;2022-08-21T01:37:52;19.50;99.90
59015;DHT22;44799;53.382;14.666;2022-08-21T01:40:18;19.50;99.90
59015;DHT22;44799;53.382;14.666;2022-08-21T01:42:45;19.50;99.90
59015;DHT22;44799;53.382;14.666;2022-08-21T01:45:12;19.40;99.90
59015;DHT22;44799;53.382;14.666;2022-08-21T01:47:39;18.90;99.90
59015;DHT22;44799;53.382;14.666;2022-08-21T01:50:08;19.40;99.90
59015;DHT22;44799;53.382;14.666;2022-08-21T01:52:34;19.40;99.90
59015;DHT22;44799;53.382;14.666;2022-08-21T01:55:00;19.30;99.90
59015;DHT22;44799;53.382;14.666;2022-08-21T01:57:26;18.70;99.90
59015;DHT22;44799;53.382;14.666;2022-08-21T01:59:52;19.30;99.90
59015;DHT22;44799;53.382;14.666;2022-08-21T02:02:19;19.30;99.90
59015;DHT22;44799;53.382;14.666;2022-08-21T02:04:44;19.00;99.90
59015;DHT22;44799;53.382;14.666;2022-08-21T02:07:11;18.90;99.90
59015;DHT22;44799;53.382;14.666;2022-08-21T02:09:37;19.20;99.90
59015;DHT22;44799;53.382;14.666;2022-08-21T02:12:03;19.10;99.90
59015;DHT22;44799;53.382;14.666;2022-08-21T02:14:29;19.20;99.90
59015;DHT22;44799;53.382;14.666;2022-08-21T02:16:54;19.30;99.90
59015;DHT22;44799;53.382;14.666;2022-08-21T02:19:20;19.30;99.90
59015;DHT22;44799;53.382;14.666;2022-08-21T02:21:46;19.30;99.90
59015;DHT22;44799;53.382;14.666;2022-08-21T02:24:12;19.30;99.90
59015;DHT22;44799;53.382;14.666;2022-08-21T02:26:38;19.20;99.90
59015;DHT22;44799;53.382;14.666;2022-08-21T02:29:04;19.10;99.90
59015;DHT22;44799;53.382;14.666;2022-08-21T02:31:31;19.10;99.90
59015;DHT22;44799;53.382;14.666;2022-08-21T02:33:57;19.20;99.90
59015;DHT22;44799;53.382;14.666;2022-08-21T02:36:22;19.10;99.90
59015;DHT22;44799;53.382;14.666;2022-08-21T02:38:48;19.00;99.90
59015;DHT22;44799;53.382;14.666;2022-08-21T02:41:19;19.10;99.90
59015;DHT22;44799;53.382;14.666;2022-08-21T02:43:46;18.80;99.90
59015;DHT22;44799;53.382;14.666;2022-08-21T02:46:15;19.00;99.90
59015;DHT22;44799;53.382;14.666;2022-08-21T02:48:41;20.00;99.90
59015;DHT22;44799;53.382;14.666;2022-08-21T02:51:13;19.00;99.90
59015;DHT22;44799;53.382;14.666;2022-08-21T02:53:40;19.00;99.90
59015;DHT22;44799;53.382;14.666;2022-08-21T02:56:09;18.90;99.90
59015;DHT22;44799;53.382;14.666;2022-08-21T02:58:41;18.90;99.90
59015;DHT22;44799;53.382;14.666;2022-08-21T03:01:08;18.10;99.90
59015;DHT22;44799;53.382;14.666;2022-08-21T03:03:37;18.90;99.90
59015;DHT22;44799;53.382;14.666;2022-08-21T03:06:04;18.80;99.90
59015;DHT22;44799;53.382;14.666;2022-08-21T03:08:30;18.70;99.90
59015;DHT22;44799;53.382;14.666;2022-08-21T03:10:56;18.80;99.90
59015;DHT22;44799;53.382;14.666;2022-08-21T03:13:22;18.80;99.90
59015;DHT22;44799;53.382;14.666;2022-08-21T03:15:49;18.80;99.90
59015;DHT22;44799;53.382;14.666;2022-08-21T03:18:16;18.60;99.90
59015;DHT22;44799;53.382;14.666;2022-08-21T03:20:42;18.60;99.90
59015;DHT22;44799;53.382;14.666;2022-08-21T03:23:10;18.70;99.90
59015;DHT22;44799;53.382;14.666;2022-08-21T03:25:38;18.60;99.90
59015;DHT22;44799;53.382;14.666;2022-08-21T03:28:07;18.60;99.90
59015;DHT22;44799;53.382;14.666;2022-08-21T03:30:33;18.70;99.90
59015;DHT22;44799;53.382;14.666;2022-08-21T03:33:00;18.40;99.90
59015;DHT22;44799;53.382;14.666;2022-08-21T03:35:27;18.60;99.90
59015;DHT22;44799;53.382;14.666;2022-08-21T03:37:53;18.60;99.90
59015;DHT22;44799;53.382;14.666;2022-08-21T03:40:21;18.60;99.90
59015;DHT22;44799;53.382;14.666;2022-08-21T03:42:47;18.50;99.90
59015;DHT22;44799;53.382;14.666;2022-08-21T03:45:15;19.10;99.90
59015;DHT22;44799;53.382;14.666;2022-08-21T03:47:59;18.40;99.90
59015;DHT22;44799;53.382;14.666;2022-08-21T03:50:28;18.40;99.90
59015;DHT22;44799;53.382;14.666;2022-08-21T03:52:55;18.40;99.90
59015;DHT22;44799;53.382;14.666;2022-08-21T03:55:22;18.30;99.90
59015;DHT22;44799;53.382;14.666;2022-08-21T03:57:48;18.50;99.90
59015;DHT22;44799;53.382;14.666;2022-08-21T04:00:15;18.50;99.90
59015;DHT22;44799;53.382;14.666;2022-08-21T04:02:42;18.50;99.90
59015;DHT22;44799;53.382;14.666;2022-08-21T04:05:11;18.50;99.90
59015;DHT22;44799;53.382;14.666;2022-08-21T04:07:39;18.40;99.90
59015;DHT22;44799;53.382;14.666;2022-08-21T04:10:06;18.30;99.90
59015;DHT22;44799;53.382;14.666;2022-08-21T04:12:32;18.30;99.90
59015;DHT22;44799;53.382;14.666;2022-08-21T04:14:58;18.30;99.90
59015;DHT22;44799;53.382;14.666;2022-08-21T04:17:24;18.50;99.90
59015;DHT22;44799;53.382;14.666;2022-08-21T04:19:50;18.30;99.90
59015;DHT22;44799;53.382;14.666;2022-08-21T04:22:16;18.40;99.90
59015;DHT22;44799;53.382;14.666;2022-08-21T04:24:43;18.40;99.90
59015;DHT22;44799;53.382;14.666;2022-08-21T04:27:08;18.30;99.90
59015;DHT22;44799;53.382;14.666;2022-08-21T04:29:34;17.60;99.90
59015;DHT22;44799;53.382;14.666;2022-08-21T04:32:00;18.40;99.90
59015;DHT22;44799;53.382;14.666;2022-08-21T04:34:26;18.30;99.90
59015;DHT22;44799;53.382;14.666;2022-08-21T04:36:52;17.00;99.90
59015;DHT22;44799;53.382;14.666;2022-08-21T04:39:17;18.30;99.90
59015;DHT22;44799;53.382;14.666;2022-08-21T04:41:43;18.30;99.90
59015;DHT22;44799;53.382;14.666;2022-08-21T04:44:09;18.30;99.90
59015;DHT22;44799;53.382;14.666;2022-08-21T04:46:35;18.30;99.90
59015;DHT22;44799;53.382;14.666;2022-08-21T04:49:01;18.40;99.90
59015;DHT22;44799;53.382;14.666;2022-08-21T04:51:31;18.90;99.90
59015;DHT22;44799;53.382;14.666;2022-08-21T04:54:02;18.30;99.90
59015;DHT22;44799;53.382;14.666;2022-08-21T04:56:43;18.30;99.90
59015;DHT22;44799;53.382;14.666;2022-08-21T04:59:17;18.30;99.90
59015;DHT22;44799;53.382;14.666;2022-08-21T05:01:45;18.40;99.90
59015;DHT22;44799;53.382;14.666;2022-08-21T05:04:14;18.30;99.90
59015;DHT22;44799;53.382;14.666;2022-08-21T05:06:41;18.40;99.90
59015;DHT22;44799;53.382;14.666;2022-08-21T05:09:08;18.20;99.90
59015;DHT22;44799;53.382;14.666;2022-08-21T05:11:35;18.20;99.90
59015;DHT22;44799;53.382;14.666;2022-08-21T05:14:02;16.90;99.90
59015;DHT22;44799;53.382;14.666;2022-08-21T05:16:28;18.50;99.90
59015;DHT22;44799;53.382;14.666;2022-08-21T05:18:54;18.40;99.90
59015;DHT22;44799;53.382;14.666;2022-08-21T05:21:20;18.40;99.90
59015;DHT22;44799;53.382;14.666;2022-08-21T05:23:46;17.90;99.90
59015;DHT22;44799;53.382;14.666;2022-08-21T05:26:12;19.80;99.90
59015;DHT22;44799;53.382;14.666;2022-08-21T05:28:38;18.40;99.90
59015;DHT22;44799;53.382;14.666;2022-08-21T05:31:04;18.10;99.90
59015;DHT22;44799;53.382;14.666;2022-08-21T05:33:30;18.40;99.90
59015;DHT22;44799;53.382;14.666;2022-08-21T05:35:56;18.40;99.90
59015;DHT22;44799;53.382;14.666;2022-08-21T05:38:24;18.30;99.90
59015;DHT22;44799;53.382;14.666;2022-08-21T05:40:53;18.10;99.90
59015;DHT22;44799;53.382;14.666;2022-08-21T05:43:19;18.30;99.90
59015;DHT22;44799;53.382;14.666;2022-08-21T05:45:45;18.30;99.90
59015;DHT22;44799;53.382;14.666;2022-08-21T05:48:13;18.30;99.90
59015;DHT22;44799;53.382;14.666;2022-08-21T05:50:40;18.90;99.90
59015;DHT22;44799;53.382;14.666;2022-08-21T05:53:07;18.40;99.90
59015;DHT22;44799;53.382;14.666;2022-08-21T05:55:32;18.40;99.90
59015;DHT22;44799;53.382;14.666;2022-08-21T05:57:58;18.40;99.90
59015;DHT22;44799;53.382;14.666;2022-08-21T06:00:25;18.40;99.90
59015;DHT22;44799;53.382;14.666;2022-08-21T06:02:50;17.80;99.90
59015;DHT22;44799;53.382;14.666;2022-08-21T06:05:17;18.40;99.90
59015;DHT22;44799;53.382;14.666;2022-08-21T06:07:43;18.40;99.90
59015;DHT22;44799;53.382;14.666;2022-08-21T06:10:10;18.50;99.90
59015;DHT22;44799;53.382;14.666;2022-08-21T06:12:36;18.60;99.90
59015;DHT22;44799;53.382;14.666;2022-08-21T06:15:02;18.70;99.90
59015;DHT22;44799;53.382;14.666;2022-08-21T06:17:28;18.80;99.90
59015;DHT22;44799;53.382;14.666;2022-08-21T06:19:54;18.80;99.90
59015;DHT22;44799;53.382;14.666;2022-08-21T06:22:20;18.80;99.90
59015;DHT22;44799;53.382;14.666;2022-08-21T06:24:47;18.80;99.90
59015;DHT22;44799;53.382;14.666;2022-08-21T06:27:13;18.90;99.90
59015;DHT22;44799;53.382;14.666;2022-08-21T06:29:39;19.00;99.90
59015;DHT22;44799;53.382;14.666;2022-08-21T06:32:05;19.10;99.90
59015;DHT22;44799;53.382;14.666;2022-08-21T06:34:38;19.10;99.90
59015;DHT22;44799;53.382;14.666;2022-08-21T06:37:04;19.10;99.90
59015;DHT22;44799;53.382;14.666;2022-08-21T06:39:30;18.70;99.90
59015;DHT22;44799;53.382;14.666;2022-08-21T06:41:56;19.30;99.90
59015;DHT22;44799;53.382;14.666;2022-08-21T06:44:22;19.20;99.90
59015;DHT22;44799;53.382;14.666;2022-08-21T06:46:48;19.20;99.90
59015;DHT22;44799;53.382;14.666;2022-08-21T06:49:14;19.20;99.90
59015;DHT22;44799;53.382;14.666;2022-08-21T06:51:40;19.20;99.90
59015;DHT22;44799;53.382;14.666;2022-08-21T06:54:06;19.20;99.90
59015;DHT22;44799;53.382;14.666;2022-08-21T06:56:31;19.30;99.90
59015;DHT22;44799;53.382;14.666;2022-08-21T06:58:59;19.20;99.90
59015;DHT22;44799;53.382;14.666;2022-08-21T07:01:26;19.30;99.90
59015;DHT22;44799;53.382;14.666;2022-08-21T07:03:52;19.40;99.90
59015;DHT22;44799;53.382;14.666;2022-08-21T07:06:18;19.40;99.90
59015;DHT22;44799;53.382;14.666;2022-08-21T07:08:44;19.50;99.90
59015;DHT22;44799;53.382;14.666;2022-08-21T07:11:18;19.00;99.90
59015;DHT22;44799;53.382;14.666;2022-08-21T07:13:44;19.60;99.90
59015;DHT22;44799;53.382;14.666;2022-08-21T07:16:12;19.60;99.90
59015;DHT22;44799;53.382;14.666;2022-08-21T07:18:38;19.70;99.90
59015;DHT22;44799;53.382;14.666;2022-08-21T07:21:06;19.70;99.90
59015;DHT22;44799;53.382;14.666;2022-08-21T07:23:35;19.70;99.90
59015;DHT22;44799;53.382;14.666;2022-08-21T07:26:02;19.70;99.90
59015;DHT22;44799;53.382;14.666;2022-08-21T07:28:29;19.80;99.90
59015;DHT22;44799;53.382;14.666;2022-08-21T07:30:57;19.90;99.90
59015;DHT22;44799;53.382;14.666;2022-08-21T07:33:25;20.00;99.90
59015;DHT22;44799;53.382;14.666;2022-08-21T07:35:52;20.50;99.90
59015;DHT22;44799;53.382;14.666;2022-08-21T07:38:18;20.20;99.90
59015;DHT22;44799;53.382;14.666;2022-08-21T07:40:45;19.80;99.90
59015;DHT22;44799;53.382;14.666;2022-08-21T07:43:12;20.90;99.90
59015;DHT22;44799;53.382;14.666;2022-08-21T07:45:38;19.90;99.90
59015;DHT22;44799;53.382;14.666;2022-08-21T07:48:04;20.00;99.90
59015;DHT22;44799;53.382;14.666;2022-08-21T07:50:30;20.00;99.90
59015;DHT22;44799;53.382;14.666;2022-08-21T07:52:56;20.10;99.90
59015;DHT22;44799;53.382;14.666;2022-08-21T07:55:22;20.10;99.90
59015;DHT22;44799;53.382;14.666;2022-08-21T07:57:48;20.10;99.90
59015;DHT22;44799;53.382;14.666;2022-08-21T08:00:18;20.20;99.90
59015;DHT22;44799;53.382;14.666;2022-08-21T08:02:47;20.20;99.90
59015;DHT22;44799;53.382;14.666;2022-08-21T08:05:16;20.30;99.90
59015;DHT22;44799;53.382;14.666;2022-08-21T08:07:43;20.30;99.90
59015;DHT22;44799;53.382;14.666;2022-08-21T08:10:10;20.20;99.90
59015;DHT22;44799;53.382;14.666;2022-08-21T08:12:38;20.80;99.90
59015;DHT22;44799;53.382;14.666;2022-08-21T08:15:07;19.80;99.90
59015;DHT22;44799;53.382;14.666;2022-08-21T08:17:33;20.50;99.90
59015;DHT22;44799;53.382;14.666;2022-08-21T08:20:00;19.70;99.90
59015;DHT22;44799;53.382;14.666;2022-08-21T08:22:27;20.60;99.90
59015;DHT22;44799;53.382;14.666;2022-08-21T08:24:53;20.70;99.90
59015;DHT22;44799;53.382;14.666;2022-08-21T08:27:20;20.90;99.90
59015;DHT22;44799;53.382;14.666;2022-08-21T08:29:46;20.90;99.90
59015;DHT22;44799;53.382;14.666;2022-08-21T08:32:13;21.00;99.90
59015;DHT22;44799;53.382;14.666;2022-08-21T08:34:39;21.00;99.90
59015;DHT22;44799;53.382;14.666;2022-08-21T08:37:07;21.10;99.90
59015;DHT22;44799;53.382;14.666;2022-08-21T08:39:34;21.20;99.90
59015;DHT22;44799;53.382;14.666;2022-08-21T08:42:09;21.30;99.90
59015;DHT22;44799;53.382;14.666;2022-08-21T08:44:43;21.40;99.90
59015;DHT22;44799;53.382;14.666;2022-08-21T08:47:16;21.40;99.90
59015;DHT22;44799;53.382;14.666;2022-08-21T08:52:40;21.50;99.90
59015;DHT22;44799;53.382;14.666;2022-08-21T08:55:15;21.60;99.90
59015;DHT22;44799;53.382;14.666;2022-08-21T08:57:45;22.00;99.90
59015;DHT22;44799;53.382;14.666;2022-08-21T09:00:13;21.60;99.90
59015;DHT22;44799;53.382;14.666;2022-08-21T09:02:42;21.40;99.90
59015;DHT22;44799;53.382;14.666;2022-08-21T09:05:12;21.60;99.90
59015;DHT22;44799;53.382;14.666;2022-08-21T09:10:37;21.70;99.90
59015;DHT22;44799;53.382;14.666;2022-08-21T09:13:11;21.70;99.90
59015;DHT22;44799;53.382;14.666;2022-08-21T09:29:25;21.70;99.90
59015;DHT22;44799;53.382;14.666;2022-08-21T09:31:55;21.80;99.90
59015;DHT22;44799;53.382;14.666;2022-08-21T09:34:27;21.80;99.90
59015;DHT22;44799;53.382;14.666;2022-08-21T09:36:54;21.80;99.90
59015;DHT22;44799;53.382;14.666;2022-08-21T09:39:37;21.90;99.90
59015;DHT22;44799;53.382;14.666;2022-08-21T09:42:06;22.00;99.90
59015;DHT22;44799;53.382;14.666;2022-08-21T09:44:35;22.10;99.90
59015;DHT22;44799;53.382;14.666;2022-08-21T09:47:06;22.10;99.90
59015;DHT22;44799;53.382;14.666;2022-08-21T09:49:40;22.20;99.90
59015;DHT22;44799;53.382;14.666;2022-08-21T09:52:22;22.30;99.90
59015;DHT22;44799;53.382;14.666;2022-08-21T09:54:52;22.30;99.90
59015;DHT22;44799;53.382;14.666;2022-08-21T09:57:24;22.90;99.90
59015;DHT22;44799;53.382;14.666;2022-08-21T10:02:48;22.40;99.90
59015;DHT22;44799;53.382;14.666;2022-08-21T10:05:24;22.30;99.90
59015;DHT22;44799;53.382;14.666;2022-08-21T10:07:51;21.90;99.90
59015;DHT22;44799;53.382;14.666;2022-08-21T10:10:23;22.30;99.90
59015;DHT22;44799;53.382;14.666;2022-08-21T10:13:06;21.90;99.90
59015;DHT22;44799;53.382;14.666;2022-08-21T10:21:23;21.60;99.50
59015;DHT22;44799;53.382;14.666;2022-08-21T10:24:03;22.40;99.80
59015;DHT22;44799;53.382;14.666;2022-08-21T10:30:05;22.60;99.70
59015;DHT22;44799;53.382;14.666;2022-08-21T10:48:07;22.80;98.20
59015;DHT22;44799;53.382;14.666;2022-08-21T10:50:48;22.80;97.40
59015;DHT22;44799;53.382;14.666;2022-08-21T10:53:22;22.80;96.70
59015;DHT22;44799;53.382;14.666;2022-08-21T10:56:05;22.80;96.40
59015;DHT22;44799;53.382;14.666;2022-08-21T10:58:51;22.80;95.50
59015;DHT22;44799;53.382;14.666;2022-08-21T11:01:49;22.90;95.20
59015;DHT22;44799;53.382;14.666;2022-08-21T11:04:45;22.90;95.30
59015;DHT22;44799;53.382;14.666;2022-08-21T11:07:30;22.90;95.00
59015;DHT22;44799;53.382;14.666;2022-08-21T11:10:04;23.00;94.40
59015;DHT22;44799;53.382;14.666;2022-08-21T11:12:41;22.90;94.40
59015;DHT22;44799;53.382;14.666;2022-08-21T11:17:54;23.10;95.20
59015;DHT22;44799;53.382;14.666;2022-08-21T11:23:01;22.50;94.00
59015;DHT22;44799;53.382;14.666;2022-08-21T11:25:35;23.20;94.20
59015;DHT22;44799;53.382;14.666;2022-08-21T11:28:31;23.30;94.30
59015;DHT22;44799;53.382;14.666;2022-08-21T11:31:24;23.20;93.90
59015;DHT22;44799;53.382;14.666;2022-08-21T11:34:05;23.20;94.20
59015;DHT22;44799;53.382;14.666;2022-08-21T11:36:51;22.70;93.70
59015;DHT22;44799;53.382;14.666;2022-08-21T11:42:16;23.20;93.80
59015;DHT22;44799;53.382;14.666;2022-08-21T11:48:05;23.10;93.40
59015;DHT22;44799;53.382;14.666;2022-08-21T11:50:33;23.10;94.00
59015;DHT22;44799;53.382;14.666;2022-08-21T11:53:13;23.00;92.90
59015;DHT22;44799;53.382;14.666;2022-08-21T11:58:41;23.30;92.30
59015;DHT22;44799;53.382;14.666;2022-08-21T12:01:12;23.40;91.60
59015;DHT22;44799;53.382;14.666;2022-08-21T12:03:53;24.60;92.60
59015;DHT22;44799;53.382;14.666;2022-08-21T12:06:33;23.40;92.30
59015;DHT22;44799;53.382;14.666;2022-08-21T12:09:05;23.00;91.60
59015;DHT22;44799;53.382;14.666;2022-08-21T12:11:31;23.60;91.90
59015;DHT22;44799;53.382;14.666;2022-08-21T12:16:37;23.70;92.20
59015;DHT22;44799;53.382;14.666;2022-08-21T12:21:58;23.80;90.50
59015;DHT22;44799;53.382;14.666;2022-08-21T12:29:22;23.80;91.20
59015;DHT22;44799;53.382;14.666;2022-08-21T12:31:55;23.80;91.60
59015;DHT22;44799;53.382;14.666;2022-08-21T12:34:32;23.90;91.50
59015;DHT22;44799;53.382;14.666;2022-08-21T12:39:51;23.70;90.60
59015;DHT22;44799;53.382;14.666;2022-08-21T12:42:19;23.60;90.40
59015;DHT22;44799;53.382;14.666;2022-08-21T12:48:08;23.70;90.10
59015;DHT22;44799;53.382;14.666;2022-08-21T12:50:44;23.70;89.90
59015;DHT22;44799;53.382;14.666;2022-08-21T12:53:38;23.70;90.00
59015;DHT22;44799;53.382;14.666;2022-08-21T12:56:10;23.70;90.30
59015;DHT22;44799;53.382;14.666;2022-08-21T12:58:46;23.70;90.10
59015;DHT22;44799;53.382;14.666;2022-08-21T13:01:21;23.70;90.40
59015;DHT22;44799;53.382;14.666;2022-08-21T13:03:51;23.60;91.40
59015;DHT22;44799;53.382;14.666;2022-08-21T13:06:20;23.50;91.50
59015;DHT22;44799;53.382;14.666;2022-08-21T13:08:56;23.40;91.80
59015;DHT22;44799;53.382;14.666;2022-08-21T13:11:24;23.40;91.80
59015;DHT22;44799;53.382;14.666;2022-08-21T13:13:51;23.40;91.50
59015;DHT22;44799;53.382;14.666;2022-08-21T13:16:25;23.50;91.40
59015;DHT22;44799;53.382;14.666;2022-08-21T13:21:19;25.90;92.20
59015;DHT22;44799;53.382;14.666;2022-08-21T13:23:46;23.70;91.80
59015;DHT22;44799;53.382;14.666;2022-08-21T13:26:18;23.70;91.20
59015;DHT22;44799;53.382;14.666;2022-08-21T13:28:44;23.70;90.80
59015;DHT22;44799;53.382;14.666;2022-08-21T13:31:18;22.90;90.50
59015;DHT22;44799;53.382;14.666;2022-08-21T13:33:48;22.60;90.70
59015;DHT22;44799;53.382;14.666;2022-08-21T13:36:18;23.70;91.20
59015;DHT22;44799;53.382;14.666;2022-08-21T13:38:45;23.50;91.40
59015;DHT22;44799;53.382;14.666;2022-08-21T13:41:25;23.50;91.70
59015;DHT22;44799;53.382;14.666;2022-08-21T13:44:02;23.50;91.90
59015;DHT22;44799;53.382;14.666;2022-08-21T13:46:32;22.90;92.10
59015;DHT22;44799;53.382;14.666;2022-08-21T13:49:00;23.10;92.10
59015;DHT22;44799;53.382;14.666;2022-08-21T13:51:27;23.00;92.50
59015;DHT22;44799;53.382;14.666;2022-08-21T13:53:53;22.90;92.30
59015;DHT22;44799;53.382;14.666;2022-08-21T13:56:29;22.80;92.80
59015;DHT22;44799;53.382;14.666;2022-08-21T13:58:57;22.80;93.10
59015;DHT22;44799;53.382;14.666;2022-08-21T14:01:33;22.80;93.20
59015;DHT22;44799;53.382;14.666;2022-08-21T14:04:04;22.90;93.00
59015;DHT22;44799;53.382;14.666;2022-08-21T14:06:35;22.90;92.70
59015;DHT22;44799;53.382;14.666;2022-08-21T14:09:13;22.90;92.10
59015;DHT22;44799;53.382;14.666;2022-08-21T14:11:47;22.90;92.70
59015;DHT22;44799;53.382;14.666;2022-08-21T14:14:24;21.90;92.40
59015;DHT22;44799;53.382;14.666;2022-08-21T14:16:59;22.70;92.80
59015;DHT22;44799;53.382;14.666;2022-08-21T14:19:38;21.70;92.70
59015;DHT22;44799;53.382;14.666;2022-08-21T14:32:52;22.90;92.60
59015;DHT22;44799;53.382;14.666;2022-08-21T14:35:19;22.90;92.50
59015;DHT22;44799;53.382;14.666;2022-08-21T14:37:47;22.80;92.30
59015;DHT22;44799;53.382;14.666;2022-08-21T14:40:16;22.80;92.60
59015;DHT22;44799;53.382;14.666;2022-08-21T14:42:43;21.70;92.60
59015;DHT22;44799;53.382;14.666;2022-08-21T14:45:18;22.80;93.00
59015;DHT22;44799;53.382;14.666;2022-08-21T14:47:45;24.60;93.40
59015;DHT22;44799;53.382;14.666;2022-08-21T14:50:12;22.80;92.90
59015;DHT22;44799;53.382;14.666;2022-08-21T14:52:39;22.90;92.80
59015;DHT22;44799;53.382;14.666;2022-08-21T14:55:07;22.90;92.70
59015;DHT22;44799;53.382;14.666;2022-08-21T14:57:36;23.00;92.90
59015;DHT22;44799;53.382;14.666;2022-08-21T15:00:04;23.00;92.80
59015;DHT22;44799;53.382;14.666;2022-08-21T15:02:30;22.90;92.60
59015;DHT22;44799;53.382;14.666;2022-08-21T15:04:56;22.90;92.80
59015;DHT22;44799;53.382;14.666;2022-08-21T15:07:22;23.00;92.80
59015;DHT22;44799;53.382;14.666;2022-08-21T15:09:47;23.00;93.10
59015;DHT22;44799;53.382;14.666;2022-08-21T15:12:14;23.00;92.60
59015;DHT22;44799;53.382;14.666;2022-08-21T15:14:40;23.10;92.60
59015;DHT22;44799;53.382;14.666;2022-08-21T15:17:09;23.30;92.30
59015;DHT22;44799;53.382;14.666;2022-08-21T15:19:35;23.60;92.70
59015;DHT22;44799;53.382;14.666;2022-08-21T15:22:01;23.90;92.00
59015;DHT22;44799;53.382;14.666;2022-08-21T15:24:27;24.20;92.00
59015;DHT22;44799;53.382;14.666;2022-08-21T15:26:54;24.70;91.40
59015;DHT22;44799;53.382;14.666;2022-08-21T15:29:20;25.10;91.30
59015;DHT22;44799;53.382;14.666;2022-08-21T15:32:02;25.20;91.00
59015;DHT22;44799;53.382;14.666;2022-08-21T15:34:40;25.20;90.80
59015;DHT22;44799;53.382;14.666;2022-08-21T15:37:06;25.10;90.50
59015;DHT22;44799;53.382;14.666;2022-08-21T15:39:34;24.80;91.00
59015;DHT22;44799;53.382;14.666;2022-08-21T15:42:01;24.40;91.00
59015;DHT22;44799;53.382;14.666;2022-08-21T15:44:28;24.20;91.50
59015;DHT22;44799;53.382;14.666;2022-08-21T15:46:55;24.10;91.80
59015;DHT22;44799;53.382;14.666;2022-08-21T15:49:22;23.90;92.50
59015;DHT22;44799;53.382;14.666;2022-08-21T15:51:48;23.80;92.90
59015;DHT22;44799;53.382;14.666;2022-08-21T15:54:14;23.70;93.10
59015;DHT22;44799;53.382;14.666;2022-08-21T15:56:42;23.40;93.60
59015;DHT22;44799;53.382;14.666;2022-08-21T15:59:18;23.30;93.70
59015;DHT22;44799;53.382;14.666;2022-08-21T16:01:50;23.20;93.90
59015;DHT22;44799;53.382;14.666;2022-08-21T16:04:23;23.10;93.80
59015;DHT22;44799;53.382;14.666;2022-08-21T16:06:50;22.40;94.10
59015;DHT22;44799;53.382;14.666;2022-08-21T16:09:16;22.90;94.20
59015;DHT22;44799;53.382;14.666;2022-08-21T16:11:43;22.90;94.80
59015;DHT22;44799;53.382;14.666;2022-08-21T16:14:14;22.70;94.80
59015;DHT22;44799;53.382;14.666;2022-08-21T16:16:40;21.90;94.90
59015;DHT22;44799;53.382;14.666;2022-08-21T16:19:06;22.60;95.00
59015;DHT22;44799;53.382;14.666;2022-08-21T16:21:33;22.50;95.40
59015;DHT22;44799;53.382;14.666;2022-08-21T16:23:59;22.60;95.60
59015;DHT22;44799;53.382;14.666;2022-08-21T16:26:26;22.60;95.50
59015;DHT22;44799;53.382;14.666;2022-08-21T16:28:54;22.60;95.50
59015;DHT22;44799;53.382;14.666;2022-08-21T16:31:22;22.70;95.50
59015;DHT22;44799;53.382;14.666;2022-08-21T16:33:51;22.90;95.40
59015;DHT22;44799;53.382;14.666;2022-08-21T16:36:17;23.10;94.70
59015;DHT22;44799;53.382;14.666;2022-08-21T16:38:44;23.30;94.30
59015;DHT22;44799;53.382;14.666;2022-08-21T16:41:15;23.30;94.40
59015;DHT22;44799;53.382;14.666;2022-08-21T16:43:42;23.30;94.20
59015;DHT22;44799;53.382;14.666;2022-08-21T16:46:10;23.20;94.30
59015;DHT22;44799;53.382;14.666;2022-08-21T16:48:37;23.30;94.20
59015;DHT22;44799;53.382;14.666;2022-08-21T16:51:04;23.60;94.00
59015;DHT22;44799;53.382;14.666;2022-08-21T16:53:30;23.20;93.90
59015;DHT22;44799;53.382;14.666;2022-08-21T16:55:56;23.50;94.00
59015;DHT22;44799;53.382;14.666;2022-08-21T16:58:29;24.60;93.60